sensor_id;sensor_type;location;lat;lon;timestamp;pressure;altitude;pressure_sealevel;temperature;humidity
21240;BME280;10778;48.962;9.018;2023-02-18T00:00:18;99973.47;;;11.14;88.67
21240;BME280;10778;48.962;9.018;2023-02-18T00:02:45;99979.31;;;11.18;88.40
21240;BME280;10778;48.962;9.018;2023-02-18T00:05:12;99964.22;;;11.20;88.53
21240;BME280;10778;48.962;9.018;2023-02-18T00:07:39;99963.84;;;11.24;87.67
21240;BME280;10778;48.962;9.018;2023-02-18T00:10:10;99968.91;;;11.16;88.51
21240;BME280;10778;48.962;9.018;2023-02-18T00:12:36;99963.50;;;11.18;88.11
21240;BME280;10778;48.962;9.018;2023-02-18T00:15:02;99961.72;;;11.07;89.48
21240;BME280;10778;48.962;9.018;2023-02-18T00:17:29;99969.97;;;11.14;88.68
21240;BME280;10778;48.962;9.018;2023-02-18T00:19:55;99963.53;;;11.06;89.11
21240;BME280;10778;48.962;9.018;2023-02-18T00:22:22;99963.88;;;11.02;88.93
21240;BME280;10778;48.962;9.018;2023-02-18T00:24:49;99979.44;;;11.05;89.16
21240;BME280;10778;48.962;9.018;2023-02-18T00:27:15;99969.00;;;11.15;88.15
21240;BME280;10778;48.962;9.018;2023-02-18T00:29:41;99969.63;;;11.18;87.78
21240;BME280;10778;48.962;9.018;2023-02-18T00:32:07;99968.31;;;11.24;87.54
21240;BME280;10778;48.962;9.018;2023-02-18T00:34:35;99963.63;;;11.16;88.10
21240;BME280;10778;48.962;9.018;2023-02-18T00:37:03;99967.00;;;11.18;87.56
21240;BME280;10778;48.962;9.018;2023-02-18T00:39:29;99960.88;;;11.29;86.85
21240;BME280;10778;48.962;9.018;2023-02-18T00:41:55;99964.72;;;11.25;87.16
21240;BME280;10778;48.962;9.018;2023-02-18T00:44:21;99965.88;;;11.21;87.61
21240;BME280;10778;48.962;9.018;2023-02-18T00:46:48;99966.63;;;11.23;87.63
21240;BME280;10778;48.962;9.018;2023-02-18T00:49:15;99977.28;;;11.33;86.88
21240;BME280;10778;48.962;9.018;2023-02-18T00:51:41;99969.94;;;11.36;85.87
21240;BME280;10778;48.962;9.018;2023-02-18T00:54:07;99966.75;;;11.33;86.48
21240;BME280;10778;48.962;9.018;2023-02-18T00:56:34;99969.47;;;11.31;86.57
21240;BME280;10778;48.962;9.018;2023-02-18T00:59:00;99967.09;;;11.28;86.51
21240;BME280;10778;48.962;9.018;2023-02-18T01:01:26;99959.91;;;11.30;86.03
21240;BME280;10778;48.962;9.018;2023-02-18T01:03:52;99956.31;;;11.31;85.94
21240;BME280;10778;48.962;9.018;2023-02-18T01:06:19;99961.81;;;11.40;85.43
21240;BME280;10778;48.962;9.018;2023-02-18T01:08:47;99947.34;;;11.34;84.83
21240;BME280;10778;48.962;9.018;2023-02-18T01:11:14;99946.13;;;11.38;85.12
21240;BME280;10778;48.962;9.018;2023-02-18T01:13:41;99953.06;;;11.39;84.29
21240;BME280;10778;48.962;9.018;2023-02-18T01:16:08;99944.72;;;11.34;85.61
21240;BME280;10778;48.962;9.018;2023-02-18T01:18:35;99951.50;;;11.36;85.17
21240;BME280;10778;48.962;9.018;2023-02-18T01:21:05;99945.53;;;11.34;85.56
21240;BME280;10778;48.962;9.018;2023-02-18T01:23:39;99949.38;;;11.30;85.39
21240;BME280;10778;48.962;9.018;2023-02-18T01:26:07;99945.06;;;11.29;85.51
21240;BME280;10778;48.962;9.018;2023-02-18T01:28:33;99953.31;;;11.24;85.77
21240;BME280;10778;48.962;9.018;2023-02-18T01:31:04;99948.41;;;11.31;85.94
21240;BME280;10778;48.962;9.018;2023-02-18T01:33:31;99953.06;;;11.28;85.37
21240;BME280;10778;48.962;9.018;2023-02-18T01:36:00;99957.28;;;11.30;86.21
21240;BME280;10778;48.962;9.018;2023-02-18T01:38:26;99947.59;;;11.19;86.26
21240;BME280;10778;48.962;9.018;2023-02-18T01:40:52;99944.81;;;11.32;85.02
21240;BME280;10778;48.962;9.018;2023-02-18T01:43:21;99935.94;;;11.33;85.57
21240;BME280;10778;48.962;9.018;2023-02-18T01:48:38;99946.28;;;11.25;85.71
21240;BME280;10778;48.962;9.018;2023-02-18T01:51:13;99939.78;;;11.29;85.77
21240;BME280;10778;48.962;9.018;2023-02-18T01:56:33;99943.38;;;11.28;84.91
21240;BME280;10778;48.962;9.018;2023-02-18T01:59:03;99933.09;;;11.25;86.52
21240;BME280;10778;48.962;9.018;2023-02-18T02:01:31;99936.91;;;11.21;85.82
21240;BME280;10778;48.962;9.018;2023-02-18T02:03:57;99947.44;;;11.21;86.20
21240;BME280;10778;48.962;9.018;2023-02-18T02:06:24;99946.63;;;11.09;87.23
21240;BME280;10778;48.962;9.018;2023-02-18T02:08:54;99931.44;;;11.13;86.99
21240;BME280;10778;48.962;9.018;2023-02-18T02:14:10;99937.56;;;11.13;87.96
21240;BME280;10778;48.962;9.018;2023-02-18T02:16:47;99927.38;;;11.08;87.73
21240;BME280;10778;48.962;9.018;2023-02-18T02:22:18;99921.59;;;11.15;87.92
21240;BME280;10778;48.962;9.018;2023-02-18T02:33:43;99924.63;;;10.99;88.36
21240;BME280;10778;48.962;9.018;2023-02-18T02:36:19;99920.69;;;11.04;88.24
21240;BME280;10778;48.962;9.018;2023-02-18T02:44:20;99917.91;;;11.06;87.98
21240;BME280;10778;48.962;9.018;2023-02-18T02:46:51;99912.03;;;11.02;87.59
21240;BME280;10778;48.962;9.018;2023-02-18T02:49:40;99913.59;;;11.05;88.07
21240;BME280;10778;48.962;9.018;2023-02-18T02:52:18;99917.91;;;11.06;87.29
21240;BME280;10778;48.962;9.018;2023-02-18T02:54:46;99908.44;;;11.15;86.52
21240;BME280;10778;48.962;9.018;2023-02-18T02:59:54;99901.84;;;11.20;84.42
21240;BME280;10778;48.962;9.018;2023-02-18T03:05:23;99895.97;;;11.28;83.70
21240;BME280;10778;48.962;9.018;2023-02-18T03:08:08;99903.97;;;11.27;84.26
21240;BME280;10778;48.962;9.018;2023-02-18T03:10:50;99892.75;;;11.24;84.13
21240;BME280;10778;48.962;9.018;2023-02-18T03:13:39;99890.56;;;11.30;84.19
21240;BME280;10778;48.962;9.018;2023-02-18T03:16:22;99885.28;;;11.30;84.14
21240;BME280;10778;48.962;9.018;2023-02-18T03:24:19;99877.19;;;11.21;85.88
21240;BME280;10778;48.962;9.018;2023-02-18T03:26:51;99883.91;;;11.14;86.44
21240;BME280;10778;48.962;9.018;2023-02-18T03:29:20;99884.75;;;11.15;86.34
21240;BME280;10778;48.962;9.018;2023-02-18T03:31:53;99882.34;;;11.12;87.93
21240;BME280;10778;48.962;9.018;2023-02-18T03:34:33;99896.03;;;11.05;88.31
21240;BME280;10778;48.962;9.018;2023-02-18T03:37:00;99883.22;;;11.01;89.39
21240;BME280;10778;48.962;9.018;2023-02-18T03:39:30;99885.59;;;10.92;89.81
21240;BME280;10778;48.962;9.018;2023-02-18T03:41:57;99895.66;;;10.87;90.61
21240;BME280;10778;48.962;9.018;2023-02-18T03:44:24;99891.59;;;10.83;91.09
21240;BME280;10778;48.962;9.018;2023-02-18T03:46:51;99894.22;;;10.83;91.68
21240;BME280;10778;48.962;9.018;2023-02-18T03:49:18;99896.88;;;10.83;91.62
21240;BME280;10778;48.962;9.018;2023-02-18T03:51:47;99895.66;;;10.76;91.65
21240;BME280;10778;48.962;9.018;2023-02-18T03:54:13;99899.00;;;10.78;92.43
21240;BME280;10778;48.962;9.018;2023-02-18T03:56:41;99902.97;;;10.72;93.48
21240;BME280;10778;48.962;9.018;2023-02-18T03:59:07;99896.75;;;10.73;93.59
21240;BME280;10778;48.962;9.018;2023-02-18T04:01:34;99888.13;;;10.71;93.21
21240;BME280;10778;48.962;9.018;2023-02-18T04:04:00;99878.78;;;10.67;93.85
21240;BME280;10778;48.962;9.018;2023-02-18T04:06:28;99868.63;;;10.62;93.82
21240;BME280;10778;48.962;9.018;2023-02-18T04:08:54;99862.88;;;10.57;94.69
21240;BME280;10778;48.962;9.018;2023-02-18T04:11:20;99872.44;;;10.58;95.51
21240;BME280;10778;48.962;9.018;2023-02-18T04:13:46;99864.06;;;10.53;95.79
21240;BME280;10778;48.962;9.018;2023-02-18T04:16:13;99873.03;;;10.50;94.95
21240;BME280;10778;48.962;9.018;2023-02-18T04:18:39;99878.44;;;10.49;95.01
21240;BME280;10778;48.962;9.018;2023-02-18T04:21:05;99875.28;;;10.44;96.27
21240;BME280;10778;48.962;9.018;2023-02-18T04:23:31;99877.56;;;10.48;95.51
21240;BME280;10778;48.962;9.018;2023-02-18T04:25:57;99876.03;;;10.46;95.10
21240;BME280;10778;48.962;9.018;2023-02-18T04:28:23;99877.13;;;10.55;94.57
21240;BME280;10778;48.962;9.018;2023-02-18T04:30:49;99877.09;;;10.66;93.10
21240;BME280;10778;48.962;9.018;2023-02-18T04:33:15;99865.88;;;10.64;92.35
21240;BME280;10778;48.962;9.018;2023-02-18T04:35:41;99870.75;;;10.57;92.86
21240;BME280;10778;48.962;9.018;2023-02-18T04:38:09;99878.31;;;10.62;91.89
21240;BME280;10778;48.962;9.018;2023-02-18T04:40:35;99878.69;;;10.69;90.95
21240;BME280;10778;48.962;9.018;2023-02-18T04:43:02;99870.78;;;10.69;90.65
21240;BME280;10778;48.962;9.018;2023-02-18T04:45:28;99872.91;;;10.75;90.21
21240;BME280;10778;48.962;9.018;2023-02-18T04:47:54;99870.91;;;10.90;88.99
21240;BME280;10778;48.962;9.018;2023-02-18T04:50:21;99879.75;;;10.89;89.27
21240;BME280;10778;48.962;9.018;2023-02-18T04:52:48;99874.00;;;10.84;88.49
21240;BME280;10778;48.962;9.018;2023-02-18T04:55:14;99877.59;;;10.82;88.30
21240;BME280;10778;48.962;9.018;2023-02-18T04:57:40;99875.31;;;10.89;88.06
21240;BME280;10778;48.962;9.018;2023-02-18T05:00:08;99876.88;;;10.92;86.88
21240;BME280;10778;48.962;9.018;2023-02-18T05:02:36;99875.19;;;10.91;85.86
21240;BME280;10778;48.962;9.018;2023-02-18T05:05:02;99872.31;;;10.94;85.83
21240;BME280;10778;48.962;9.018;2023-02-18T05:07:28;99878.75;;;11.01;85.29
21240;BME280;10778;48.962;9.018;2023-02-18T05:09:54;99875.41;;;11.10;84.94
21240;BME280;10778;48.962;9.018;2023-02-18T05:12:20;99870.00;;;11.12;83.92
21240;BME280;10778;48.962;9.018;2023-02-18T05:14:46;99867.28;;;11.02;84.91
21240;BME280;10778;48.962;9.018;2023-02-18T05:17:12;99872.28;;;11.17;84.10
21240;BME280;10778;48.962;9.018;2023-02-18T05:19:38;99869.06;;;11.13;84.38
21240;BME280;10778;48.962;9.018;2023-02-18T05:22:04;99863.06;;;11.11;84.22
21240;BME280;10778;48.962;9.018;2023-02-18T05:24:30;99848.00;;;11.13;84.54
21240;BME280;10778;48.962;9.018;2023-02-18T05:26:56;99851.72;;;10.99;84.62
21240;BME280;10778;48.962;9.018;2023-02-18T05:29:22;99848.56;;;11.17;84.16
21240;BME280;10778;48.962;9.018;2023-02-18T05:31:48;99849.94;;;11.00;85.06
21240;BME280;10778;48.962;9.018;2023-02-18T05:34:14;99848.63;;;11.05;84.39
21240;BME280;10778;48.962;9.018;2023-02-18T05:36:40;99846.81;;;11.06;84.72
21240;BME280;10778;48.962;9.018;2023-02-18T05:39:06;99851.97;;;11.07;84.13
21240;BME280;10778;48.962;9.018;2023-02-18T05:41:32;99850.41;;;11.05;84.12
21240;BME280;10778;48.962;9.018;2023-02-18T05:43:58;99853.13;;;11.15;83.87
21240;BME280;10778;48.962;9.018;2023-02-18T05:46:43;99845.69;;;11.20;83.49
21240;BME280;10778;48.962;9.018;2023-02-18T05:49:09;99865.84;;;11.09;84.14
21240;BME280;10778;48.962;9.018;2023-02-18T05:51:35;99856.13;;;11.21;83.50
21240;BME280;10778;48.962;9.018;2023-02-18T05:54:01;99849.53;;;11.16;84.00
21240;BME280;10778;48.962;9.018;2023-02-18T05:56:27;99847.16;;;11.13;83.54
21240;BME280;10778;48.962;9.018;2023-02-18T05:58:53;99840.06;;;11.24;82.20
21240;BME280;10778;48.962;9.018;2023-02-18T06:01:19;99846.78;;;11.17;82.88
21240;BME280;10778;48.962;9.018;2023-02-18T06:03:45;99851.72;;;11.10;83.41
21240;BME280;10778;48.962;9.018;2023-02-18T06:06:11;99853.94;;;11.27;82.37
21240;BME280;10778;48.962;9.018;2023-02-18T06:08:37;99864.72;;;11.23;82.92
21240;BME280;10778;48.962;9.018;2023-02-18T06:11:03;99851.06;;;11.30;82.14
21240;BME280;10778;48.962;9.018;2023-02-18T06:13:29;99832.16;;;11.24;82.96
21240;BME280;10778;48.962;9.018;2023-02-18T06:15:55;99845.69;;;11.20;83.23
21240;BME280;10778;48.962;9.018;2023-02-18T06:18:21;99847.25;;;11.11;84.08
21240;BME280;10778;48.962;9.018;2023-02-18T06:20:48;99842.34;;;11.18;83.55
21240;BME280;10778;48.962;9.018;2023-02-18T06:23:14;99845.03;;;11.06;84.19
21240;BME280;10778;48.962;9.018;2023-02-18T06:25:41;99845.84;;;11.07;83.76
21240;BME280;10778;48.962;9.018;2023-02-18T06:28:07;99847.78;;;11.05;84.03
21240;BME280;10778;48.962;9.018;2023-02-18T06:30:33;99846.69;;;11.07;84.51
21240;BME280;10778;48.962;9.018;2023-02-18T06:32:59;99848.84;;;11.02;84.13
21240;BME280;10778;48.962;9.018;2023-02-18T06:35:29;99851.47;;;11.02;84.08
21240;BME280;10778;48.962;9.018;2023-02-18T06:37:55;99848.47;;;11.07;83.73
21240;BME280;10778;48.962;9.018;2023-02-18T06:40:21;99856.53;;;11.05;84.10
21240;BME280;10778;48.962;9.018;2023-02-18T06:42:47;99855.16;;;11.11;83.60
21240;BME280;10778;48.962;9.018;2023-02-18T06:45:13;99856.97;;;11.10;83.63
21240;BME280;10778;48.962;9.018;2023-02-18T06:47:39;99862.59;;;11.17;83.43
21240;BME280;10778;48.962;9.018;2023-02-18T06:50:06;99855.84;;;11.24;82.84
21240;BME280;10778;48.962;9.018;2023-02-18T06:52:32;99849.88;;;11.22;82.93
21240;BME280;10778;48.962;9.018;2023-02-18T06:54:59;99845.69;;;11.20;83.23
21240;BME280;10778;48.962;9.018;2023-02-18T06:57:25;99841.88;;;11.13;83.85
21240;BME280;10778;48.962;9.018;2023-02-18T06:59:51;99836.72;;;11.11;83.63
21240;BME280;10778;48.962;9.018;2023-02-18T07:02:17;99832.41;;;11.21;82.87
21240;BME280;10778;48.962;9.018;2023-02-18T07:04:43;99827.50;;;11.17;83.14
21240;BME280;10778;48.962;9.018;2023-02-18T07:07:11;99836.97;;;11.19;83.18
21240;BME280;10778;48.962;9.018;2023-02-18T07:09:37;99827.69;;;11.36;81.84
21240;BME280;10778;48.962;9.018;2023-02-18T07:12:03;99827.22;;;11.31;82.58
21240;BME280;10778;48.962;9.018;2023-02-18T07:14:29;99830.81;;;11.30;82.07
21240;BME280;10778;48.962;9.018;2023-02-18T07:16:56;99821.75;;;11.23;83.01
21240;BME280;10778;48.962;9.018;2023-02-18T07:19:23;99829.41;;;11.26;82.88
21240;BME280;10778;48.962;9.018;2023-02-18T07:21:49;99818.50;;;11.31;82.08
21240;BME280;10778;48.962;9.018;2023-02-18T07:24:15;99812.47;;;11.40;81.91
21240;BME280;10778;48.962;9.018;2023-02-18T07:26:41;99814.13;;;11.41;81.07
21240;BME280;10778;48.962;9.018;2023-02-18T07:29:07;99816.19;;;11.37;82.08
21240;BME280;10778;48.962;9.018;2023-02-18T07:31:33;99810.19;;;11.35;81.41
21240;BME280;10778;48.962;9.018;2023-02-18T07:33:59;99803.47;;;11.43;81.60
21240;BME280;10778;48.962;9.018;2023-02-18T07:36:25;99803.94;;;11.48;80.76
21240;BME280;10778;48.962;9.018;2023-02-18T07:38:51;99803.19;;;11.57;80.62
21240;BME280;10778;48.962;9.018;2023-02-18T07:41:22;99803.38;;;11.65;79.65
21240;BME280;10778;48.962;9.018;2023-02-18T07:43:48;99805.03;;;11.66;79.75
21240;BME280;10778;48.962;9.018;2023-02-18T07:46:15;99796.66;;;11.73;79.51
21240;BME280;10778;48.962;9.018;2023-02-18T07:48:41;99801.25;;;11.80;79.94
21240;BME280;10778;48.962;9.018;2023-02-18T07:51:09;99809.03;;;11.82;79.45
21240;BME280;10778;48.962;9.018;2023-02-18T07:53:36;99795.53;;;11.75;79.60
21240;BME280;10778;48.962;9.018;2023-02-18T07:56:03;99803.31;;;11.77;78.52
21240;BME280;10778;48.962;9.018;2023-02-18T07:58:33;99799.13;;;11.95;78.00
21240;BME280;10778;48.962;9.018;2023-02-18T08:01:04;99805.38;;;11.94;78.33
21240;BME280;10778;48.962;9.018;2023-02-18T08:03:31;99807.97;;;12.06;79.21
21240;BME280;10778;48.962;9.018;2023-02-18T08:05:58;99807.84;;;12.07;77.55
21240;BME280;10778;48.962;9.018;2023-02-18T08:08:26;99806.16;;;12.06;76.58
21240;BME280;10778;48.962;9.018;2023-02-18T08:10:54;99812.47;;;12.15;77.18
21240;BME280;10778;48.962;9.018;2023-02-18T08:13:21;99803.59;;;12.16;76.35
21240;BME280;10778;48.962;9.018;2023-02-18T08:15:47;99798.41;;;12.15;76.92
21240;BME280;10778;48.962;9.018;2023-02-18T08:18:17;99802.44;;;12.09;76.69
21240;BME280;10778;48.962;9.018;2023-02-18T08:20:45;99801.47;;;12.10;76.89
21240;BME280;10778;48.962;9.018;2023-02-18T08:23:15;99799.97;;;12.17;75.79
21240;BME280;10778;48.962;9.018;2023-02-18T08:25:49;99799.97;;;12.17;76.28
21240;BME280;10778;48.962;9.018;2023-02-18T08:28:21;99789.03;;;12.22;75.96
21240;BME280;10778;48.962;9.018;2023-02-18T08:30:49;99801.06;;;12.15;75.73
21240;BME280;10778;48.962;9.018;2023-02-18T08:33:16;99793.16;;;12.15;76.03
21240;BME280;10778;48.962;9.018;2023-02-18T08:35:43;99792.91;;;12.18;76.18
21240;BME280;10778;48.962;9.018;2023-02-18T08:38:09;99793.22;;;12.25;75.47
21240;BME280;10778;48.962;9.018;2023-02-18T08:40:35;99780.97;;;12.23;75.02
21240;BME280;10778;48.962;9.018;2023-02-18T08:43:02;99790.28;;;12.18;75.10
21240;BME280;10778;48.962;9.018;2023-02-18T08:45:28;99787.47;;;12.19;74.95
21240;BME280;10778;48.962;9.018;2023-02-18T08:47:54;99789.69;;;12.14;75.86
21240;BME280;10778;48.962;9.018;2023-02-18T08:50:20;99780.09;;;12.13;76.56
21240;BME280;10778;48.962;9.018;2023-02-18T08:52:55;99786.50;;;12.20;76.09
21240;BME280;10778;48.962;9.018;2023-02-18T08:55:21;99787.22;;;12.22;76.13
21240;BME280;10778;48.962;9.018;2023-02-18T08:57:48;99780.97;;;12.23;76.87
21240;BME280;10778;48.962;9.018;2023-02-18T09:00:16;99780.72;;;12.27;76.38
21240;BME280;10778;48.962;9.018;2023-02-18T09:02:42;99780.84;;;12.25;77.47
21240;BME280;10778;48.962;9.018;2023-02-18T09:05:09;99786.16;;;12.35;77.02
21240;BME280;10778;48.962;9.018;2023-02-18T09:07:36;99770.59;;;12.32;77.19
21240;BME280;10778;48.962;9.018;2023-02-18T09:10:03;99772.97;;;12.35;76.93
21240;BME280;10778;48.962;9.018;2023-02-18T09:12:29;99773.25;;;12.32;76.83
21240;BME280;10778;48.962;9.018;2023-02-18T09:14:55;99776.59;;;12.34;76.48
21240;BME280;10778;48.962;9.018;2023-02-18T09:17:21;99768.78;;;12.32;76.89
21240;BME280;10778;48.962;9.018;2023-02-18T09:19:47;99771.44;;;12.32;76.84
21240;BME280;10778;48.962;9.018;2023-02-18T09:22:13;99765.47;;;12.40;76.28
21240;BME280;10778;48.962;9.018;2023-02-18T09:24:40;99774.38;;;12.39;76.40
21240;BME280;10778;48.962;9.018;2023-02-18T09:27:07;99759.78;;;12.35;76.02
21240;BME280;10778;48.962;9.018;2023-02-18T09:29:38;99763.97;;;12.37;76.63
21240;BME280;10778;48.962;9.018;2023-02-18T09:32:05;99763.97;;;12.37;76.13
21240;BME280;10778;48.962;9.018;2023-02-18T09:34:33;99764.97;;;12.46;75.74
21240;BME280;10778;48.962;9.018;2023-02-18T09:36:59;99771.34;;;12.44;76.29
21240;BME280;10778;48.962;9.018;2023-02-18T09:39:25;99761.47;;;12.46;76.10
21240;BME280;10778;48.962;9.018;2023-02-18T09:41:56;99766.38;;;12.50;76.17
21240;BME280;10778;48.962;9.018;2023-02-18T09:44:27;99761.22;;;12.49;75.66
21240;BME280;10778;48.962;9.018;2023-02-18T09:47:21;99778.88;;;12.48;76.01
21240;BME280;10778;48.962;9.018;2023-02-18T09:49:48;99771.53;;;12.52;75.60
21240;BME280;10778;48.962;9.018;2023-02-18T09:52:22;99765.53;;;12.50;76.21
21240;BME280;10778;48.962;9.018;2023-02-18T09:54:49;99775.53;;;12.46;76.50
21240;BME280;10778;48.962;9.018;2023-02-18T09:57:28;99764.53;;;12.41;75.61
21240;BME280;10778;48.962;9.018;2023-02-18T10:00:04;99757.72;;;12.38;75.88
21240;BME280;10778;48.962;9.018;2023-02-18T10:02:40;99760.78;;;12.44;74.99
21240;BME280;10778;48.962;9.018;2023-02-18T10:05:12;99762.06;;;12.49;74.46
21240;BME280;10778;48.962;9.018;2023-02-18T10:07:41;99761.63;;;12.44;74.25
21240;BME280;10778;48.962;9.018;2023-02-18T10:10:41;99764.78;;;12.38;74.74
21240;BME280;10778;48.962;9.018;2023-02-18T10:13:32;99753.41;;;12.37;74.88
21240;BME280;10778;48.962;9.018;2023-02-18T10:15:59;99765.34;;;12.32;75.57
21240;BME280;10778;48.962;9.018;2023-02-18T10:18:29;99771.03;;;12.37;75.58
21240;BME280;10778;48.962;9.018;2023-02-18T10:21:13;99782.06;;;12.42;75.54
21240;BME280;10778;48.962;9.018;2023-02-18T10:23:46;99773.66;;;12.37;76.32
21240;BME280;10778;48.962;9.018;2023-02-18T10:26:16;99768.97;;;12.41;77.04
21240;BME280;10778;48.962;9.018;2023-02-18T10:28:43;99759.66;;;12.36;76.21
21240;BME280;10778;48.962;9.018;2023-02-18T10:31:14;99760.47;;;12.37;76.41
21240;BME280;10778;48.962;9.018;2023-02-18T10:33:54;99772.66;;;12.28;76.83
21240;BME280;10778;48.962;9.018;2023-02-18T10:36:35;99772.41;;;12.31;76.76
21240;BME280;10778;48.962;9.018;2023-02-18T10:39:31;99765.34;;;12.32;77.19
21240;BME280;10778;48.962;9.018;2023-02-18T10:48:30;99741.19;;;12.36;76.40
21240;BME280;10778;48.962;9.018;2023-02-18T10:51:11;99760.22;;;12.40;76.55
21240;BME280;10778;48.962;9.018;2023-02-18T10:53:41;99748.16;;;12.47;76.97
21240;BME280;10778;48.962;9.018;2023-02-18T10:56:32;99749.13;;;12.46;77.20
21240;BME280;10778;48.962;9.018;2023-02-18T10:59:28;99754.81;;;12.42;76.90
21240;BME280;10778;48.962;9.018;2023-02-18T11:01:59;99740.94;;;12.49;77.31
21240;BME280;10778;48.962;9.018;2023-02-18T11:04:40;99736.09;;;12.55;76.41
21240;BME280;10778;48.962;9.018;2023-02-18T11:07:13;99743.59;;;12.49;76.40
21240;BME280;10778;48.962;9.018;2023-02-18T11:09:52;99753.88;;;12.52;76.19
21240;BME280;10778;48.962;9.018;2023-02-18T11:12:23;99739.56;;;12.55;76.33
21240;BME280;10778;48.962;9.018;2023-02-18T11:17:35;99732.19;;;12.49;75.99
21240;BME280;10778;48.962;9.018;2023-02-18T11:22:49;99743.56;;;12.40;77.18
21240;BME280;10778;48.962;9.018;2023-02-18T11:25:26;99744.28;;;12.51;76.87
21240;BME280;10778;48.962;9.018;2023-02-18T11:28:02;99746.78;;;12.53;76.91
21240;BME280;10778;48.962;9.018;2023-02-18T11:30:35;99720.63;;;12.40;77.26
21240;BME280;10778;48.962;9.018;2023-02-18T11:33:06;99725.50;;;12.45;77.20
21240;BME280;10778;48.962;9.018;2023-02-18T11:35:34;99724.91;;;12.31;77.81
21240;BME280;10778;48.962;9.018;2023-02-18T11:38:02;99723.69;;;12.35;77.61
21240;BME280;10778;48.962;9.018;2023-02-18T11:40:33;99715.19;;;12.32;77.65
21240;BME280;10778;48.962;9.018;2023-02-18T11:43:09;99718.84;;;12.41;78.10
21240;BME280;10778;48.962;9.018;2023-02-18T11:45:37;99716.47;;;12.37;77.90
21240;BME280;10778;48.962;9.018;2023-02-18T11:48:17;99708.00;;;12.44;77.67
21240;BME280;10778;48.962;9.018;2023-02-18T11:50:44;99702.44;;;12.47;77.54
21240;BME280;10778;48.962;9.018;2023-02-18T11:53:52;99699.28;;;12.43;77.29
21240;BME280;10778;48.962;9.018;2023-02-18T11:56:19;99698.56;;;12.41;78.02
21240;BME280;10778;48.962;9.018;2023-02-18T11:58:47;99699.38;;;12.32;78.41
21240;BME280;10778;48.962;9.018;2023-02-18T12:01:27;99697.97;;;12.28;78.78
21240;BME280;10778;48.962;9.018;2023-02-18T12:04:00;99699.91;;;12.26;79.00
21240;BME280;10778;48.962;9.018;2023-02-18T12:09:39;99688.25;;;12.38;78.24
21240;BME280;10778;48.962;9.018;2023-02-18T12:12:12;99698.41;;;12.33;78.13
21240;BME280;10778;48.962;9.018;2023-02-18T12:14:40;99691.34;;;12.33;78.11
21240;BME280;10778;48.962;9.018;2023-02-18T12:17:17;99677.00;;;12.36;77.71
21240;BME280;10778;48.962;9.018;2023-02-18T12:22:22;99678.66;;;12.27;78.57
21240;BME280;10778;48.962;9.018;2023-02-18T12:32:49;99672.28;;;12.30;78.04
21240;BME280;10778;48.962;9.018;2023-02-18T12:41:05;99683.53;;;12.32;78.40
21240;BME280;10778;48.962;9.018;2023-02-18T12:43:51;99676.88;;;12.37;78.25
21240;BME280;10778;48.962;9.018;2023-02-18T12:49:40;99673.69;;;12.34;77.66
21240;BME280;10778;48.962;9.018;2023-02-18T13:00:10;99673.53;;;12.26;78.47
21240;BME280;10778;48.962;9.018;2023-02-18T13:08:27;99665.16;;;12.20;78.73
21240;BME280;10778;48.962;9.018;2023-02-18T13:13:29;99659.34;;;12.17;78.99
21240;BME280;10778;48.962;9.018;2023-02-18T13:16:05;99652.44;;;12.26;78.53
21240;BME280;10778;48.962;9.018;2023-02-18T13:21:37;99652.69;;;12.32;78.14
21240;BME280;10778;48.962;9.018;2023-02-18T13:24:08;99647.19;;;12.45;77.56
21240;BME280;10778;48.962;9.018;2023-02-18T13:26:35;99639.84;;;12.59;77.95
21240;BME280;10778;48.962;9.018;2023-02-18T13:29:25;99643.31;;;12.59;77.06
21240;BME280;10778;48.962;9.018;2023-02-18T13:39:59;99636.47;;;12.37;77.22
21240;BME280;10778;48.962;9.018;2023-02-18T13:47:43;99621.31;;;12.39;77.83
21240;BME280;10778;48.962;9.018;2023-02-18T13:53:13;99628.03;;;12.53;77.15
21240;BME280;10778;48.962;9.018;2023-02-18T13:56:02;99627.88;;;12.55;76.59
21240;BME280;10778;48.962;9.018;2023-02-18T13:58:59;99622.19;;;12.49;77.10
21240;BME280;10778;48.962;9.018;2023-02-18T14:01:39;99605.66;;;12.37;77.61
21240;BME280;10778;48.962;9.018;2023-02-18T14:10:05;99614.81;;;12.33;78.16
21240;BME280;10778;48.962;9.018;2023-02-18T14:33:34;99623.25;;;12.27;79.12
21240;BME280;10778;48.962;9.018;2023-02-18T14:41:21;99619.22;;;12.23;78.98
21240;BME280;10778;48.962;9.018;2023-02-18T14:49:43;99610.75;;;12.19;79.11
21240;BME280;10778;48.962;9.018;2023-02-18T14:54:44;99608.09;;;12.19;78.48
21240;BME280;10778;48.962;9.018;2023-02-18T14:57:16;99611.31;;;12.23;78.35
21240;BME280;10778;48.962;9.018;2023-02-18T14:59:45;99620.47;;;12.19;77.07
21240;BME280;10778;48.962;9.018;2023-02-18T15:02:22;99607.81;;;12.22;75.45
21240;BME280;10778;48.962;9.018;2023-02-18T15:04:49;99608.25;;;12.18;75.79
21240;BME280;10778;48.962;9.018;2023-02-18T15:07:21;99604.50;;;12.20;75.76
21240;BME280;10778;48.962;9.018;2023-02-18T15:09:51;99604.66;;;12.19;75.62
21240;BME280;10778;48.962;9.018;2023-02-18T15:12:20;99609.06;;;12.18;75.28
21240;BME280;10778;48.962;9.018;2023-02-18T15:14:50;99611.44;;;12.21;74.50
21240;BME280;10778;48.962;9.018;2023-02-18T15:17:22;99620.31;;;12.20;74.83
21240;BME280;10778;48.962;9.018;2023-02-18T15:19:54;99622.25;;;12.18;75.04
21240;BME280;10778;48.962;9.018;2023-02-18T15:22:23;99613.78;;;12.15;74.96
21240;BME280;10778;48.962;9.018;2023-02-18T15:24:52;99619.78;;;12.17;75.00
21240;BME280;10778;48.962;9.018;2023-02-18T15:27:21;99619.59;;;12.08;74.69
21240;BME280;10778;48.962;9.018;2023-02-18T15:29:50;99618.13;;;12.16;75.78
21240;BME280;10778;48.962;9.018;2023-02-18T15:32:23;99609.63;;;12.12;75.56
21240;BME280;10778;48.962;9.018;2023-02-18T15:34:52;99609.22;;;12.17;75.19
21240;BME280;10778;48.962;9.018;2023-02-18T15:37:19;99604.06;;;12.05;75.19
21240;BME280;10778;48.962;9.018;2023-02-18T15:39:45;99619.47;;;12.10;75.30